This is the latest recevied weather packets stored in our database for station/object NW6UP. If no packets are shown the sender has not sent any weather packets the latest 10 day(s).
| Time | Temp. | Humidity | Pressure | Rain* | Wind** | Luminosity | Snow |
|---|---|---|---|---|---|---|---|
| 1777613065 | 12.78° C | 85% | 0 hPa | 0 mm | - | - | - |
| 1777611868 | 13.33° C | 85% | 0 hPa | 0 mm | - | - | - |
| 1777610667 | 13.33° C | 85% | 1013.8 hPa | 0 mm | - | - | - |
| 1777609465 | 13.33° C | 84% | 0 hPa | 0 mm | - | - | - |
| 1777608266 | 13.89° C | 83% | 0 hPa | 0 mm | - | - | - |
| 1777605869 | 15° C | 79% | 0 hPa | 0 mm | - | - | - |
| 1777604666 | 15.56° C | 75% | 1012.7 hPa | 0 mm | - | - | - |
| 1777602265 | 17.22° C | 69% | 0 hPa | 0 mm | - | - | - |
| 1777599867 | 18.33° C | 64% | 1012.4 hPa | 0 mm | - | - | - |
| 1777598667 | 19.44° C | 62% | 1012.2 hPa | 0 mm | - | - | - |
| 1777597465 | 20° C | 60% | 0 hPa | 0 mm | - | - | - |
| 1777596265 | 20.56° C | 56% | 1012.2 hPa | 0 mm | - | - | - |
| 1777595065 | 21.11° C | 55% | 1012.3 hPa | 0 mm | - | - | - |
| 1777593867 | 21.67° C | 53% | 0 hPa | 0 mm | - | - | - |
| 1777592665 | 22.22° C | 52% | 1012.5 hPa | 0 mm | - | - | - |
| 1777591466 | 22.22° C | 52% | 0 hPa | 0 mm | - | - | - |
| 1777590267 | 22.78° C | 50% | 0 hPa | 0 mm | - | - | - |
| 1777589066 | 22.78° C | 48% | 1012.8 hPa | 0 mm | - | - | - |
| 1777587865 | 23.33° C | 47% | 0 hPa | 0 mm | - | - | - |
| 1777586665 | 23.89° C | 45% | 0 hPa | 0 mm | - | - | - |
| 1777583065 | 26.11° C | 42% | 0 hPa | 0 mm | - | - | - |
| 1777581868 | 26.67° C | 42% | 0 hPa | 0 mm | - | - | - |
| 1777580666 | 24.44° C | 45% | 1013.2 hPa | 0 mm | - | - | - |
| 1777579465 | 26.11° C | 43% | 0 hPa | 0 mm | - | - | - |
| 1777578266 | 25° C | 42% | 1013.8 hPa | 0 mm | - | - | - |
* Rain latest hour (hover to see other rain measurements)
** Current wind speed in m/s (hover to see current wind gust speed)